createdAt,value
2023-10-16T00:00:42.330Z,97088.84
2023-10-16T00:03:14.971Z,97088.16
2023-10-16T00:05:46.685Z,97089.97
2023-10-16T00:08:19.593Z,97093.94
2023-10-16T00:11:00.595Z,97093.66
2023-10-16T00:13:32.814Z,97092.38
2023-10-16T00:16:04.639Z,97090.22
2023-10-16T00:18:36.175Z,97091.78
2023-10-16T00:21:07.787Z,97087.09
2023-10-16T00:23:39.394Z,97090.59
2023-10-16T00:26:13.015Z,97092.16
2023-10-16T00:28:48.878Z,97088.66
2023-10-16T00:31:20.464Z,97088.09
2023-10-16T00:33:52.157Z,97085.81
2023-10-16T00:36:23.990Z,97078.78
2023-10-16T00:38:55.577Z,97083.06
2023-10-16T00:41:28.197Z,97073.53
2023-10-16T00:43:59.763Z,97064.50
2023-10-16T00:46:33.162Z,97074.09
2023-10-16T00:49:06.118Z,97073.59
2023-10-16T00:51:41.350Z,97074.16
2023-10-16T00:54:22.034Z,97078.69
2023-10-16T00:56:54.864Z,97070.66
2023-10-16T00:59:27.541Z,97078.97
2023-10-16T01:02:01.517Z,97073.94
2023-10-16T01:04:34.330Z,97063.53
2023-10-16T01:07:06.189Z,97065.13
2023-10-16T01:09:38.090Z,97059.78
2023-10-16T01:12:09.785Z,97066.22
2023-10-16T01:14:42.862Z,97061.69
2023-10-16T01:17:14.515Z,97065.97
2023-10-16T01:19:47.932Z,97078.72
2023-10-16T01:22:19.504Z,97068.09
2023-10-16T01:24:52.858Z,97066.25
2023-10-16T01:27:24.632Z,97062.50
2023-10-16T01:29:57.058Z,97062.25
2023-10-16T01:32:29.199Z,97064.88
2023-10-16T01:35:01.612Z,97068.88
2023-10-16T01:37:33.231Z,97064.63
2023-10-16T01:40:05.493Z,97064.63
2023-10-16T01:42:37.105Z,97053.25
2023-10-16T01:45:08.883Z,97050.31
2023-10-16T01:47:40.474Z,97047.38
2023-10-16T01:50:12.345Z,97048.13
2023-10-16T01:52:43.943Z,97049.75
2023-10-16T01:55:16.487Z,97048.69
2023-10-16T01:57:48.193Z,97048.19
2023-10-16T02:00:20.022Z,97043.63
2023-10-16T02:02:51.737Z,97038.84
2023-10-16T02:05:23.446Z,97046.56
2023-10-16T02:07:55.082Z,97047.38
2023-10-16T02:10:26.830Z,97038.59
2023-10-16T02:12:58.583Z,97039.13
2023-10-16T02:15:33.856Z,97040.75
2023-10-16T02:18:07.567Z,97033.56
2023-10-16T02:20:39.292Z,97029.03
2023-10-16T02:23:14.149Z,97027.47
2023-10-16T02:25:46.831Z,97022.63
2023-10-16T02:28:18.500Z,97024.25
2023-10-16T02:30:50.767Z,97024.75
2023-10-16T02:33:23.190Z,97023.19
2023-10-16T02:35:55.880Z,97020.81
2023-10-16T02:38:27.892Z,97026.66
2023-10-16T02:41:00.560Z,97029.03
2023-10-16T02:43:33.852Z,97025.03
2023-10-16T02:46:05.782Z,97030.63
2023-10-16T02:48:42.744Z,97028.50
2023-10-16T02:51:14.655Z,97033.53
2023-10-16T02:53:47.191Z,97031.16
2023-10-16T02:56:19.031Z,97027.41
2023-10-16T02:58:50.577Z,97029.28
2023-10-16T03:01:23.045Z,97032.47
2023-10-16T03:03:54.770Z,97034.38
2023-10-16T03:06:26.385Z,97029.06
2023-10-16T03:08:58.157Z,97032.25
2023-10-16T03:11:29.716Z,97026.66
2023-10-16T03:14:01.335Z,97025.09
2023-10-16T03:16:32.946Z,97026.91
2023-10-16T03:19:05.758Z,97025.59
2023-10-16T03:21:37.424Z,97030.91
2023-10-16T03:24:09.147Z,97027.47
2023-10-16T03:26:40.710Z,97029.88
2023-10-16T03:29:12.347Z,97022.94
2023-10-16T03:31:43.921Z,97027.97
2023-10-16T03:34:15.557Z,97037.03
2023-10-16T03:36:47.204Z,97030.63
2023-10-16T03:39:18.992Z,97035.44
2023-10-16T03:41:52.160Z,97033.34
2023-10-16T03:44:24.626Z,97034.66
2023-10-16T03:46:56.373Z,97031.72
2023-10-16T03:49:28.044Z,97030.41
2023-10-16T03:51:59.771Z,97026.94
2023-10-16T03:54:31.596Z,97031.44
2023-10-16T03:57:03.705Z,97037.84
2023-10-16T03:59:35.638Z,97034.34
2023-10-16T04:02:08.007Z,97042.06
2023-10-16T04:04:39.889Z,97039.94
2023-10-16T04:07:13.653Z,97043.16
2023-10-16T04:09:46.414Z,97046.09
2023-10-16T04:12:18.858Z,97041.31
2023-10-16T04:15:05.833Z,97034.66
2023-10-16T04:17:37.542Z,97041.28
2023-10-16T04:20:09.516Z,97033.84
2023-10-16T04:22:41.066Z,97033.56
2023-10-16T04:25:12.614Z,97029.56
2023-10-16T04:27:44.176Z,97035.44
2023-10-16T04:30:15.845Z,97033.06
2023-10-16T04:32:47.399Z,97030.94
2023-10-16T04:35:18.956Z,97037.00
2023-10-16T04:37:50.596Z,97032.53
2023-10-16T04:40:23.304Z,97026.69
2023-10-16T04:42:54.884Z,97027.50
2023-10-16T04:45:26.682Z,97020.53
2023-10-16T04:47:58.770Z,97023.22
2023-10-16T04:50:44.414Z,97023.50
2023-10-16T04:53:23.072Z,97019.22
2023-10-16T04:55:55.106Z,97017.09
2023-10-16T04:58:26.798Z,97030.09
2023-10-16T05:00:59.360Z,97023.75
2023-10-16T05:03:34.226Z,97025.84
2023-10-16T05:06:08.892Z,97019.22
2023-10-16T05:08:41.882Z,97029.28
2023-10-16T05:11:14.211Z,97029.56
2023-10-16T05:13:46.385Z,97023.72
2023-10-16T05:16:17.946Z,97029.81
2023-10-16T05:18:53.392Z,97022.16
2023-10-16T05:21:25.758Z,97017.84
2023-10-16T05:23:59.117Z,97017.56
2023-10-16T05:26:35.383Z,97017.59
2023-10-16T05:29:09.770Z,97014.69
2023-10-16T05:31:41.511Z,97011.25
2023-10-16T05:34:13.597Z,97010.69
2023-10-16T05:36:46.228Z,97014.16
2023-10-16T05:39:17.942Z,97014.94
2023-10-16T05:41:53.241Z,97009.25
2023-10-16T05:44:25.354Z,97005.03
2023-10-16T05:46:57.208Z,97007.16
2023-10-16T05:49:29.437Z,97005.03
2023-10-16T05:52:01.023Z,97013.84
2023-10-16T05:54:32.621Z,97013.84
2023-10-16T05:57:04.201Z,97009.03
2023-10-16T05:59:36.439Z,97014.56
2023-10-16T06:02:08.163Z,97016.69
2023-10-16T06:04:39.853Z,97013.75
2023-10-16T06:07:11.662Z,97010.63
2023-10-16T06:09:43.281Z,97010.63
2023-10-16T06:12:14.901Z,97008.97
2023-10-16T06:14:46.667Z,97014.25
2023-10-16T06:17:18.293Z,97018.19
2023-10-16T06:19:49.882Z,97017.41
2023-10-16T06:22:21.402Z,97024.13
2023-10-16T06:24:53.036Z,97021.69
2023-10-16T06:27:24.790Z,97031.31
2023-10-16T06:29:57.041Z,97040.56
2023-10-16T06:32:28.882Z,97039.56
2023-10-16T06:35:00.526Z,97041.88
2023-10-16T06:37:36.074Z,97035.25
2023-10-16T06:40:08.758Z,97032.72
2023-10-16T06:42:40.926Z,97033.75
2023-10-16T06:45:12.865Z,97034.59
2023-10-16T06:47:47.388Z,97029.25
2023-10-16T06:50:19.555Z,97031.38
2023-10-16T06:52:59.769Z,97029.00
2023-10-16T06:55:33.082Z,97034.09
2023-10-16T06:58:07.271Z,97040.47
2023-10-16T07:00:41.736Z,97039.41
2023-10-16T07:03:14.184Z,97044.47
2023-10-16T07:05:46.894Z,97039.94
2023-10-16T07:08:20.446Z,97035.44
2023-10-16T07:10:55.947Z,97030.66
2023-10-16T07:13:27.469Z,97034.66
2023-10-16T07:16:01.782Z,97044.72
2023-10-16T07:18:35.020Z,97040.94
2023-10-16T07:21:07.533Z,97040.91
2023-10-16T07:23:39.238Z,97043.84
2023-10-16T07:26:11.146Z,97037.00
2023-10-16T07:28:42.683Z,97047.38
2023-10-16T07:31:14.259Z,97041.25
2023-10-16T07:33:46.851Z,97036.72
2023-10-16T07:36:18.473Z,97043.63
2023-10-16T07:38:51.536Z,97050.31
2023-10-16T07:41:23.594Z,97050.22
2023-10-16T07:43:55.243Z,97049.75
2023-10-16T07:46:26.836Z,97050.22
2023-10-16T07:49:00.115Z,97047.75
2023-10-16T07:51:31.908Z,97049.84
2023-10-16T07:54:04.457Z,97052.53
2023-10-16T07:56:36.744Z,97058.44
2023-10-16T07:59:08.833Z,97038.69
2023-10-16T08:01:43.913Z,97048.84
2023-10-16T08:04:17.209Z,97047.78
2023-10-16T08:06:51.874Z,97044.53
2023-10-16T08:09:25.250Z,97044.81
2023-10-16T08:11:58.269Z,97052.81
2023-10-16T08:14:30.790Z,97051.34
2023-10-16T08:17:02.656Z,97047.59
2023-10-16T08:19:35.139Z,97045.66
2023-10-16T08:22:07.600Z,97049.72
2023-10-16T08:24:48.371Z,97053.72
2023-10-16T08:27:23.449Z,97056.66
2023-10-16T08:29:55.910Z,97049.75
2023-10-16T08:32:27.571Z,97055.28
2023-10-16T08:35:01.599Z,97051.56
2023-10-16T08:37:45.385Z,97056.25
2023-10-16T08:40:22.696Z,97053.16
2023-10-16T08:42:54.745Z,97052.97
2023-10-16T08:45:27.761Z,97054.03
2023-10-16T08:48:00.626Z,97050.03
2023-10-16T08:50:36.797Z,97050.66
2023-10-16T08:53:10.289Z,97044.66
2023-10-16T08:55:41.903Z,97043.47
2023-10-16T08:58:14.391Z,97044.22
2023-10-16T09:00:46.051Z,97039.78
2023-10-16T09:03:21.538Z,97039.69
2023-10-16T09:05:53.118Z,97027.25
2023-10-16T09:08:25.044Z,97034.84
2023-10-16T09:10:56.793Z,97033.75
2023-10-16T09:13:33.945Z,97033.84
2023-10-16T09:16:12.676Z,97036.81
2023-10-16T09:18:46.097Z,97035.00
2023-10-16T09:21:20.193Z,97034.91
2023-10-16T09:23:59.181Z,97032.38
2023-10-16T09:26:33.263Z,97025.66
2023-10-16T09:29:05.778Z,97037.13
2023-10-16T09:31:49.954Z,97025.56
2023-10-16T09:34:25.008Z,97024.69
2023-10-16T09:37:00.453Z,97022.84
2023-10-16T09:39:33.980Z,97018.78
2023-10-16T09:42:06.993Z,97020.53
2023-10-16T09:44:46.059Z,97017.84
2023-10-16T09:47:19.930Z,97016.66
2023-10-16T09:49:59.584Z,97019.81
2023-10-16T09:52:37.276Z,97013.63
2023-10-16T09:55:14.162Z,97008.09
2023-10-16T09:57:57.697Z,97012.59
2023-10-16T10:00:41.785Z,97015.16
2023-10-16T10:03:15.998Z,97010.31
2023-10-16T10:05:51.223Z,97012.25
2023-10-16T10:08:31.514Z,97009.56
2023-10-16T10:11:22.280Z,97007.50
2023-10-16T10:14:01.010Z,97012.94
2023-10-16T10:16:34.719Z,97007.38
2023-10-16T10:19:20.251Z,97001.91
2023-10-16T10:21:52.090Z,97008.13
2023-10-16T10:24:24.929Z,97003.88
2023-10-16T10:26:57.425Z,96996.16
2023-10-16T10:29:30.655Z,97000.19
2023-10-16T10:32:11.315Z,97000.16
2023-10-16T10:34:45.316Z,96990.16
2023-10-16T10:37:45.645Z,96990.81
2023-10-16T10:40:19.266Z,96986.88
2023-10-16T10:42:58.362Z,96981.78
2023-10-16T10:45:35.906Z,96982.34
2023-10-16T10:48:12.859Z,96985.75
2023-10-16T10:50:52.773Z,96973.63
2023-10-16T10:53:28.343Z,96972.69
2023-10-16T10:56:02.915Z,96969.72
2023-10-16T10:58:36.876Z,96976.00
2023-10-16T11:01:11.291Z,96969.31
2023-10-16T11:03:46.698Z,96966.44
2023-10-16T11:06:20.125Z,96965.13
2023-10-16T11:09:01.294Z,96962.81
2023-10-16T11:11:38.729Z,96955.38
2023-10-16T11:14:12.747Z,96953.13
2023-10-16T11:16:47.554Z,96954.16
2023-10-16T11:19:23.372Z,96936.56
2023-10-16T11:22:05.678Z,96935.03
2023-10-16T11:24:52.099Z,96934.25
2023-10-16T11:27:24.060Z,96918.38
2023-10-16T11:29:55.653Z,96916.94
2023-10-16T11:32:27.832Z,96909.31
2023-10-16T11:34:59.384Z,96905.31
2023-10-16T11:37:32.609Z,96899.88
2023-10-16T11:40:04.676Z,96904.16
2023-10-16T11:42:36.403Z,96898.84
2023-10-16T11:45:09.128Z,96902.13
2023-10-16T11:47:41.230Z,96886.41
2023-10-16T11:50:13.524Z,96885.06
2023-10-16T11:52:46.391Z,96884.75
2023-10-16T11:55:18.917Z,96879.53
2023-10-16T11:57:50.965Z,96878.81
2023-10-16T12:00:23.019Z,96881.06
2023-10-16T12:02:55.185Z,96871.41
2023-10-16T12:05:28.304Z,96872.97
2023-10-16T12:08:01.078Z,96870.75
2023-10-16T12:10:38.734Z,96860.88
2023-10-16T12:13:14.975Z,96857.72
2023-10-16T12:15:53.917Z,96849.19
2023-10-16T12:18:27.278Z,96853.31
2023-10-16T12:21:01.158Z,96837.78
2023-10-16T12:23:36.833Z,96828.69
2023-10-16T12:26:08.669Z,96830.47
2023-10-16T12:28:40.344Z,96828.94
2023-10-16T12:31:12.166Z,96827.84
2023-10-16T12:33:43.868Z,96830.34
2023-10-16T12:36:15.564Z,96833.56
2023-10-16T12:38:47.127Z,96828.06
2023-10-16T12:41:18.902Z,96832.03
2023-10-16T12:43:50.932Z,96827.34
2023-10-16T12:46:22.486Z,96823.31
2023-10-16T12:48:54.328Z,96819.00
2023-10-16T12:51:26.231Z,96824.41
2023-10-16T12:53:57.982Z,96824.72
2023-10-16T12:56:30.822Z,96825.59
2023-10-16T12:59:05.528Z,96819.19
2023-10-16T13:01:37.376Z,96823.63
2023-10-16T13:04:09.002Z,96814.72
2023-10-16T13:06:42.126Z,96810.47
2023-10-16T13:09:14.239Z,96808.84
2023-10-16T13:11:47.103Z,96803.66
2023-10-16T13:14:19.171Z,96805.91
2023-10-16T13:16:50.918Z,96804.22
2023-10-16T13:19:22.508Z,96805.06
2023-10-16T13:21:54.928Z,96808.81
2023-10-16T13:24:26.718Z,96807.34
2023-10-16T13:26:58.397Z,96802.03
2023-10-16T13:29:29.912Z,96805.06
2023-10-16T13:32:01.421Z,96806.91
2023-10-16T13:34:33.079Z,96800.91
2023-10-16T13:37:04.797Z,96797.63
2023-10-16T13:39:36.501Z,96797.63
2023-10-16T13:42:08.795Z,96792.16
2023-10-16T13:44:40.377Z,96793.31
2023-10-16T13:47:12.412Z,96789.47
2023-10-16T13:49:44.550Z,96789.94
2023-10-16T13:52:16.227Z,96783.13
2023-10-16T13:54:47.973Z,96793.72
2023-10-16T13:57:19.602Z,96786.34
2023-10-16T13:59:51.512Z,96781.16
2023-10-16T14:02:23.202Z,96774.22
2023-10-16T14:04:55.199Z,96767.53
2023-10-16T14:07:26.932Z,96772.59
2023-10-16T14:10:00.392Z,96766.69
2023-10-16T14:12:33.195Z,96769.38
2023-10-16T14:15:05.516Z,96772.41
2023-10-16T14:17:37.284Z,96773.44
2023-10-16T14:20:09.628Z,96764.03
2023-10-16T14:22:41.214Z,96761.09
2023-10-16T14:25:12.845Z,96753.41
2023-10-16T14:27:44.487Z,96759.69
2023-10-16T14:30:16.147Z,96758.56
2023-10-16T14:32:47.715Z,96758.47
2023-10-16T14:35:19.300Z,96762.69
2023-10-16T14:37:50.825Z,96753.94
2023-10-16T14:40:22.391Z,96757.75
2023-10-16T14:42:54.040Z,96753.03
2023-10-16T14:45:25.617Z,96760.31
2023-10-16T14:47:57.185Z,96757.44
2023-10-16T14:50:28.742Z,96757.25
2023-10-16T14:53:01.110Z,96759.22
2023-10-16T14:55:33.267Z,96756.53
2023-10-16T14:58:16.768Z,96758.31
2023-10-16T15:00:56.635Z,96760.94
2023-10-16T15:03:28.228Z,96756.66
2023-10-16T15:05:59.921Z,96756.00
2023-10-16T15:08:31.784Z,96762.88
2023-10-16T15:11:03.896Z,96758.47
2023-10-16T15:13:35.608Z,96765.72
2023-10-16T15:16:08.937Z,96752.81
2023-10-16T15:18:41.115Z,96753.41
2023-10-16T15:21:12.887Z,96753.88
2023-10-16T15:23:44.569Z,96758.44
2023-10-16T15:26:16.293Z,96753.34
2023-10-16T15:28:48.859Z,96761.97
2023-10-16T15:31:20.890Z,96757.28
2023-10-16T15:33:52.971Z,96755.22
2023-10-16T15:36:25.557Z,96762.38
2023-10-16T15:38:57.334Z,96756.47
2023-10-16T15:41:29.252Z,96764.50
2023-10-16T15:44:00.897Z,96766.25
2023-10-16T15:46:33.141Z,96769.00
2023-10-16T15:49:05.005Z,96768.88
2023-10-16T15:51:36.555Z,96775.22
2023-10-16T15:54:08.066Z,96767.13
2023-10-16T15:56:39.541Z,96771.09
2023-10-16T15:59:11.106Z,96779.69
2023-10-16T16:01:42.696Z,96774.69
2023-10-16T16:04:14.331Z,96773.94
2023-10-16T16:06:45.945Z,96775.53
2023-10-16T16:09:17.564Z,96773.53
2023-10-16T16:11:49.090Z,96783.44
2023-10-16T16:14:21.811Z,96784.59
2023-10-16T16:16:53.613Z,96792.72
2023-10-16T16:19:25.556Z,96787.22
2023-10-16T16:21:57.149Z,96795.50
2023-10-16T16:24:29.284Z,96800.28
2023-10-16T16:27:00.935Z,96790.25
2023-10-16T16:29:33.150Z,96799.38
2023-10-16T16:32:06.183Z,96797.13
2023-10-16T16:34:38.769Z,96793.44
2023-10-16T16:37:10.337Z,96804.06
2023-10-16T16:39:42.171Z,96811.59
2023-10-16T16:42:13.801Z,96810.78
2023-10-16T16:44:45.886Z,96808.91
2023-10-16T16:47:19.665Z,96809.22
2023-10-16T16:49:51.521Z,96812.19
2023-10-16T16:52:24.134Z,96813.28
2023-10-16T16:54:56.376Z,96812.06
2023-10-16T16:57:31.390Z,96810.50
2023-10-16T17:00:11.631Z,96818.63
2023-10-16T17:02:45.071Z,96822.22
2023-10-16T17:05:23.852Z,96827.09
2023-10-16T17:07:58.676Z,96815.22
2023-10-16T17:10:30.284Z,96827.69
2023-10-16T17:13:01.937Z,96826.78
2023-10-16T17:15:33.546Z,96828.59
2023-10-16T17:18:05.486Z,96836.44
2023-10-16T17:20:37.136Z,96827.38
2023-10-16T17:23:08.716Z,96827.78
2023-10-16T17:25:40.369Z,96835.56
2023-10-16T17:28:12.018Z,96830.81
2023-10-16T17:30:43.548Z,96835.09
2023-10-16T17:33:15.274Z,96841.22
2023-10-16T17:35:47.143Z,96845.75
2023-10-16T17:38:18.701Z,96850.53
2023-10-16T17:40:50.212Z,96851.00
2023-10-16T17:43:21.796Z,96858.03
2023-10-16T17:45:54.182Z,96861.13
2023-10-16T17:48:25.826Z,96860.63
2023-10-16T17:50:57.532Z,96865.72
2023-10-16T17:53:29.145Z,96862.84
2023-10-16T17:56:01.095Z,96865.22
2023-10-16T17:58:33.306Z,96874.38
2023-10-16T18:01:05.011Z,96870.34
2023-10-16T18:03:38.198Z,96864.53
2023-10-16T18:06:10.196Z,96869.22
2023-10-16T18:08:42.431Z,96871.03
2023-10-16T18:11:14.402Z,96871.28
2023-10-16T18:13:46.494Z,96870.81
2023-10-16T18:16:19.137Z,96873.72
2023-10-16T18:18:50.946Z,96876.81
2023-10-16T18:21:23.547Z,96874.00
2023-10-16T18:23:59.058Z,96871.06
2023-10-16T18:26:33.165Z,96873.44
2023-10-16T18:29:05.506Z,96874.25
2023-10-16T18:31:37.236Z,96873.25
2023-10-16T18:34:08.934Z,96877.03
2023-10-16T18:36:43.606Z,96871.25
2023-10-16T18:39:15.182Z,96871.50
2023-10-16T18:41:47.095Z,96864.81
2023-10-16T18:44:18.680Z,96866.44
2023-10-16T18:46:50.233Z,96878.28
2023-10-16T18:49:21.849Z,96875.53
2023-10-16T18:51:53.428Z,96874.56
2023-10-16T18:54:24.969Z,96878.88
2023-10-16T18:56:56.610Z,96876.19
2023-10-16T18:59:28.255Z,96878.00
2023-10-16T19:01:59.829Z,96877.44
2023-10-16T19:04:31.405Z,96867.69
2023-10-16T19:07:03.363Z,96868.16
2023-10-16T19:09:34.915Z,96860.31
2023-10-16T19:12:06.873Z,96869.00
2023-10-16T19:14:38.469Z,96860.59
2023-10-16T19:17:10.171Z,96857.88
2023-10-16T19:19:42.836Z,96862.22
2023-10-16T19:22:14.525Z,96869.31
2023-10-16T19:24:46.313Z,96866.72
2023-10-16T19:27:18.089Z,96862.13
2023-10-16T19:29:50.873Z,96873.63
2023-10-16T19:32:23.214Z,96876.38
2023-10-16T19:34:57.219Z,96879.25
2023-10-16T19:37:33.139Z,96877.22
2023-10-16T19:40:06.023Z,96882.56
2023-10-16T19:42:46.896Z,96886.94
2023-10-16T19:45:20.024Z,96890.22
2023-10-16T19:47:54.318Z,96897.47
2023-10-16T19:50:27.792Z,96901.75
2023-10-16T19:53:03.040Z,96894.66
2023-10-16T19:55:36.614Z,96899.13
2023-10-16T19:58:08.158Z,96898.06
2023-10-16T20:00:39.796Z,96896.97
2023-10-16T20:03:11.904Z,96906.25
2023-10-16T20:05:43.518Z,96911.78
2023-10-16T20:08:15.346Z,96910.88
2023-10-16T20:10:46.872Z,96907.94
2023-10-16T20:13:18.428Z,96908.06
2023-10-16T20:15:49.998Z,96908.72
2023-10-16T20:18:21.529Z,96906.09
2023-10-16T20:20:53.753Z,96907.31
2023-10-16T20:23:25.339Z,96906.25
2023-10-16T20:25:56.906Z,96905.47
2023-10-16T20:28:28.488Z,96904.56
2023-10-16T20:31:00.230Z,96906.50
2023-10-16T20:33:31.854Z,96902.94
2023-10-16T20:36:04.208Z,96896.19
2023-10-16T20:38:36.485Z,96900.84
2023-10-16T20:41:08.580Z,96898.25
2023-10-16T20:43:40.589Z,96900.03
2023-10-16T20:46:12.314Z,96901.41
2023-10-16T20:48:44.085Z,96902.16
2023-10-16T20:51:17.188Z,96904.97
2023-10-16T20:53:48.965Z,96914.34
2023-10-16T20:56:23.426Z,96908.72
2023-10-16T20:58:55.693Z,96911.38
2023-10-16T21:01:27.456Z,96914.88
2023-10-16T21:03:59.521Z,96910.38
2023-10-16T21:06:33.532Z,96909.94
2023-10-16T21:09:06.523Z,96908.84
2023-10-16T21:11:38.745Z,96913.56
2023-10-16T21:14:10.618Z,96910.16
2023-10-16T21:16:43.517Z,96907.56
2023-10-16T21:19:18.050Z,96908.63
2023-10-16T21:21:49.765Z,96906.19
2023-10-16T21:24:21.442Z,96903.72
2023-10-16T21:26:53.057Z,96899.94
2023-10-16T21:29:24.703Z,96904.78
2023-10-16T21:31:56.320Z,96906.44
2023-10-16T21:34:28.032Z,96910.72
2023-10-16T21:36:59.743Z,96907.72
2023-10-16T21:39:31.297Z,96915.75
2023-10-16T21:42:02.926Z,96913.91
2023-10-16T21:44:34.472Z,96907.34
2023-10-16T21:47:07.633Z,96914.81
2023-10-16T21:49:41.946Z,96923.31
2023-10-16T21:52:15.003Z,96914.81
2023-10-16T21:54:48.090Z,96922.00
2023-10-16T21:57:19.933Z,96921.47
2023-10-16T21:59:51.796Z,96910.59
2023-10-16T22:02:23.862Z,96907.66
2023-10-16T22:04:55.531Z,96917.72
2023-10-16T22:07:27.919Z,96917.75
2023-10-16T22:09:59.650Z,96908.16
2023-10-16T22:12:32.757Z,96912.69
2023-10-16T22:15:07.607Z,96908.19
2023-10-16T22:17:40.337Z,96908.19
2023-10-16T22:20:12.933Z,96903.69
2023-10-16T22:22:44.822Z,96902.84
2023-10-16T22:25:17.838Z,96901.47
2023-10-16T22:27:50.334Z,96904.16
2023-10-16T22:30:22.825Z,96898.84
2023-10-16T22:32:56.545Z,96907.13
2023-10-16T22:35:29.979Z,96907.88
2023-10-16T22:38:04.230Z,96909.22
2023-10-16T22:40:36.032Z,96903.09
2023-10-16T22:43:08.137Z,96902.56
2023-10-16T22:45:40.844Z,96905.97
2023-10-16T22:48:12.803Z,96897.66
2023-10-16T22:50:44.526Z,96899.09
2023-10-16T22:53:16.076Z,96903.31
2023-10-16T22:55:47.585Z,96900.94
2023-10-16T22:58:19.164Z,96897.53
2023-10-16T23:00:50.747Z,96904.72
2023-10-16T23:03:22.450Z,96908.19
2023-10-16T23:05:57.884Z,96915.06
2023-10-16T23:08:33.316Z,96903.94
2023-10-16T23:11:05.442Z,96901.56
2023-10-16T23:13:37.574Z,96908.97
2023-10-16T23:16:09.220Z,96911.31
2023-10-16T23:18:41.879Z,96907.88
2023-10-16T23:21:13.530Z,96900.16
2023-10-16T23:23:45.500Z,96900.91
2023-10-16T23:26:17.320Z,96900.91
2023-10-16T23:28:49.034Z,96901.22
2023-10-16T23:31:21.246Z,96895.44
2023-10-16T23:33:53.125Z,96893.06
2023-10-16T23:36:24.853Z,96885.09
2023-10-16T23:38:57.409Z,96887.47
2023-10-16T23:41:30.693Z,96888.50
2023-10-16T23:44:04.591Z,96883.19
2023-10-16T23:46:36.274Z,96886.94
2023-10-16T23:49:14.000Z,96886.13
2023-10-16T23:51:46.744Z,96891.16
2023-10-16T23:54:22.420Z,96883.75
2023-10-16T23:56:55.774Z,96890.63
2023-10-16T23:59:32.847Z,96888.84
